DKFSF EDFH-EDFH
Flight info
| Callsign | DKFSF |
|---|---|
| Flight time | 0h 3m |
| Altitude | |
| Route | |
| Aircraft | ZZZZ |
Departure
| Time | 2026-04-30 19:15 |
|---|---|
| Airport | Frankfurt-Hahn Airport (EDFH) |
Arrival
| Time | 2026-04-30 19:18 |
|---|---|
| Airport | Frankfurt-Hahn Airport (EDFH) |
| Time | Latitude | Longitude | Altitude | Speed | Heading |
|---|---|---|---|---|---|
| 2026-04-30 19:11 | 49.94323 | 7.26472 | 1619 ft | 0 kts | 126° |
| 2026-04-30 19:12 | 49.94322 | 7.26474 | 1624 ft | 0 kts | 129° |
| 2026-04-30 19:12 | 49.94309 | 7.26487 | 1647 ft | 0 kts | 167° |
| 2026-04-30 19:13 | 49.93893 | 7.25711 | 1629 ft | 21 kts | 290° |
| 2026-04-30 19:13 | 49.93997 | 7.25521 | 1629 ft | 7 kts | 58° |
| 2026-04-30 19:13 | 49.94013 | 7.25552 | 1629 ft | 0 kts | 36° |
| 2026-04-30 19:14 | 49.94061 | 7.25607 | 1628 ft | 19 kts | 38° |
| 2026-04-30 19:14 | 49.94233 | 7.25766 | 1627 ft | 38 kts | 36° |
| 2026-04-30 19:15 | 49.94513 | 7.26051 | 1622 ft | 59 kts | 28° |
| 2026-04-30 19:15 | 49.95079 | 7.26586 | 2462 ft | 59 kts | 43° |
| 2026-04-30 19:15 | 49.95449 | 7.26911 | 2395 ft | 56 kts | 352° |
| 2026-04-30 19:16 | 49.95565 | 7.26600 | 1885 ft | 80 kts | 216° |
| 2026-04-30 19:16 | 49.95280 | 7.26309 | 2028 ft | 58 kts | 218° |
| 2026-04-30 19:16 | 49.94979 | 7.25726 | 3091 ft | 58 kts | 227° |
| 2026-04-30 19:17 | 49.94666 | 7.25398 | 3067 ft | 57 kts | 214° |
| 2026-04-30 19:17 | 49.93975 | 7.24816 | 2974 ft | 64 kts | 219° |
| 2026-04-30 19:17 | 49.93539 | 7.24502 | 2769 ft | 70 kts | 202° |
| 2026-04-30 19:18 | 49.93784 | 7.25301 | 1642 ft | 144 kts | 32° |
| 2026-04-30 19:18 | 49.94796 | 7.26320 | 1618 ft | 119 kts | 32° |
| 2026-04-30 19:18 | 49.95236 | 7.26249 | 1767 ft | 44 kts | 293° |
| 2026-04-30 19:19 | 49.95222 | 7.26004 | 1611 ft | 35 kts | 319° |
| 2026-04-30 19:19 | 49.95406 | 7.25677 | 1610 ft | 49 kts | 309° |
| 2026-04-30 19:19 | 49.93493 | 7.21998 | 3781 ft | 0 kts | 226° |
| 2026-04-30 19:20 | 49.93264 | 7.22074 | 2399 ft | 162 kts | 112° |
| 2026-04-30 19:20 | 49.92903 | 7.23686 | 2009 ft | 143 kts | 101° |
| 2026-04-30 19:20 | 49.94111 | 7.25646 | 1633 ft | 124 kts | 32° |
| 2026-04-30 19:21 | 49.94771 | 7.26200 | 1899 ft | 58 kts | 338° |
| 2026-04-30 19:21 | 49.94371 | 7.25295 | 1707 ft | 76 kts | 213° |
| 2026-04-30 19:22 | 49.93913 | 7.25453 | 1642 ft | 59 kts | 29° |
| 2026-04-30 19:22 | 49.94143 | 7.25673 | 1627 ft | 0 kts | 32° |
| 2026-04-30 19:23 | 49.94853 | 7.26395 | 1630 ft | 67 kts | 3° |
| 2026-04-30 19:24 | 49.95313 | 7.26787 | 1929 ft | 64 kts | 17° |
| 2026-04-30 19:24 | 49.95688 | 7.26705 | 2269 ft | 67 kts | 290° |
| 2026-04-30 19:24 | 49.94650 | 7.25457 | 1726 ft | 89 kts | 218° |
| 2026-04-30 19:25 | 49.93633 | 7.24909 | 1708 ft | 70 kts | 115° |
| 2026-04-30 19:26 | 49.95538 | 7.26747 | 3193 ft | 0 kts | 27° |
| 2026-04-30 19:26 | 49.94479 | 7.25642 | 1681 ft | 139 kts | 210° |
| 2026-04-30 19:26 | 49.93773 | 7.24943 | 1661 ft | 121 kts | 216° |
| 2026-04-30 19:27 | 49.93186 | 7.24680 | 1703 ft | 69 kts | 58° |
| 2026-04-30 19:27 | 49.93825 | 7.25375 | 1642 ft | 51 kts | 30° |
| 2026-04-30 19:28 | 49.94101 | 7.25661 | 1638 ft | 45 kts | 28° |
| 2026-04-30 19:28 | 49.94487 | 7.26048 | 1638 ft | 87 kts | 30° |
| 2026-04-30 19:29 | 49.95081 | 7.26611 | 1615 ft | 38 kts | 52° |
| 2026-04-30 19:29 | 49.95103 | 7.26711 | 1609 ft | 1 kts | 223° |
| 2026-04-30 19:30 | 49.94580 | 7.26531 | 1709 ft | 75 kts | 191° |
| 2026-04-30 19:30 | 49.93727 | 7.25728 | 1645 ft | 58 kts | 243° |
| 2026-04-30 19:31 | 49.94426 | 7.26273 | 1624 ft | 73 kts | 31° |
| 2026-04-30 19:31 | 49.94840 | 7.26701 | 1615 ft | 70 kts | 36° |
| 2026-04-30 19:31 | 49.95521 | 7.27376 | 1763 ft | 49 kts | 339° |
| 2026-04-30 19:32 | 49.95435 | 7.26873 | 1682 ft | 61 kts | 293° |
| 2026-04-30 19:32 | 49.95348 | 7.25962 | 1674 ft | 75 kts | 218° |
| 2026-04-30 19:32 | 49.95067 | 7.26430 | 1650 ft | 63 kts | 143° |
| 2026-04-30 19:32 | 49.94723 | 7.26252 | 1624 ft | 54 kts | 213° |
| 2026-04-30 19:33 | 49.94478 | 7.26024 | 1621 ft | 1 kts | 87° |
| 2026-04-30 19:33 | 49.94479 | 7.26068 | 2048 ft | 0 kts | 86° |
| 2026-04-30 19:33 | 49.94532 | 7.25923 | 2025 ft | 84 kts | 244° |
| 2026-04-30 19:34 | 49.94466 | 7.26662 | 1642 ft | 101 kts | 72° |
| 2026-04-30 19:34 | 49.94282 | 7.27052 | 1734 ft | 55 kts | 247° |
| 2026-04-30 19:34 | 49.94190 | 7.26268 | 1661 ft | 57 kts | 38° |
| 2026-04-30 19:35 | 49.94488 | 7.26596 | 1838 ft | 13 kts | 127° |
| 2026-04-30 19:35 | 49.94316 | 7.26791 | 2058 ft | 86 kts | 172° |
| 2026-04-30 19:35 | 49.94425 | 7.26714 | 1705 ft | 46 kts | 83° |
| 2026-04-30 19:35 | 49.94209 | 7.26775 | 1651 ft | 39 kts | 229° |
| 2026-04-30 19:36 | 49.94245 | 7.26424 | 1703 ft | 82 kts | 342° |
| 2026-04-30 19:36 | 49.94561 | 7.26549 | 1618 ft | 17 kts | 170° |